sensor_id;sensor_type;location;lat;lon;timestamp;P1;durP1;ratioP1;P2;durP2;ratioP2
79149;SDS011;68563;45.644;13.782;2024-01-15T00:01:11;75.45;;;40.22;;
79149;SDS011;68563;45.644;13.782;2024-01-15T00:03:36;76.15;;;40.10;;
79149;SDS011;68563;45.644;13.782;2024-01-15T00:06:02;76.20;;;40.72;;
79149;SDS011;68563;45.644;13.782;2024-01-15T00:08:27;74.63;;;39.92;;
79149;SDS011;68563;45.644;13.782;2024-01-15T00:10:53;75.80;;;39.70;;
79149;SDS011;68563;45.644;13.782;2024-01-15T00:13:18;73.78;;;39.63;;
79149;SDS011;68563;45.644;13.782;2024-01-15T00:15:43;78.35;;;41.35;;
79149;SDS011;68563;45.644;13.782;2024-01-15T00:18:09;77.13;;;40.10;;
79149;SDS011;68563;45.644;13.782;2024-01-15T00:20:34;74.18;;;39.60;;
79149;SDS011;68563;45.644;13.782;2024-01-15T00:23:00;73.30;;;40.55;;
79149;SDS011;68563;45.644;13.782;2024-01-15T00:25:25;73.75;;;39.55;;
79149;SDS011;68563;45.644;13.782;2024-01-15T00:27:50;76.28;;;40.50;;
79149;SDS011;68563;45.644;13.782;2024-01-15T00:30:16;76.82;;;40.65;;
79149;SDS011;68563;45.644;13.782;2024-01-15T00:32:41;76.43;;;40.63;;
79149;SDS011;68563;45.644;13.782;2024-01-15T00:35:07;71.47;;;39.17;;
79149;SDS011;68563;45.644;13.782;2024-01-15T00:37:32;78.25;;;41.70;;
79149;SDS011;68563;45.644;13.782;2024-01-15T00:39:57;73.78;;;39.88;;
79149;SDS011;68563;45.644;13.782;2024-01-15T00:42:23;74.53;;;40.88;;
79149;SDS011;68563;45.644;13.782;2024-01-15T00:44:48;74.57;;;39.97;;
79149;SDS011;68563;45.644;13.782;2024-01-15T00:47:14;73.38;;;38.95;;
79149;SDS011;68563;45.644;13.782;2024-01-15T00:49:39;73.40;;;39.53;;
79149;SDS011;68563;45.644;13.782;2024-01-15T00:52:04;73.28;;;38.90;;
79149;SDS011;68563;45.644;13.782;2024-01-15T00:54:30;70.75;;;38.60;;
79149;SDS011;68563;45.644;13.782;2024-01-15T00:56:55;76.30;;;40.25;;
79149;SDS011;68563;45.644;13.782;2024-01-15T00:59:21;71.45;;;39.30;;
79149;SDS011;68563;45.644;13.782;2024-01-15T01:01:46;72.57;;;39.35;;
79149;SDS011;68563;45.644;13.782;2024-01-15T01:04:12;71.57;;;38.25;;
79149;SDS011;68563;45.644;13.782;2024-01-15T01:06:38;70.28;;;37.85;;
79149;SDS011;68563;45.644;13.782;2024-01-15T01:09:03;71.15;;;39.47;;
79149;SDS011;68563;45.644;13.782;2024-01-15T01:11:29;71.20;;;37.63;;
79149;SDS011;68563;45.644;13.782;2024-01-15T01:13:54;72.13;;;38.42;;
79149;SDS011;68563;45.644;13.782;2024-01-15T01:16:21;76.15;;;38.92;;
79149;SDS011;68563;45.644;13.782;2024-01-15T01:18:47;69.10;;;36.60;;
79149;SDS011;68563;45.644;13.782;2024-01-15T01:21:12;69.47;;;36.92;;
79149;SDS011;68563;45.644;13.782;2024-01-15T01:23:37;73.75;;;40.53;;
79149;SDS011;68563;45.644;13.782;2024-01-15T01:26:03;73.50;;;38.13;;
79149;SDS011;68563;45.644;13.782;2024-01-15T01:28:28;71.32;;;37.53;;
79149;SDS011;68563;45.644;13.782;2024-01-15T01:30:53;71.03;;;39.20;;
79149;SDS011;68563;45.644;13.782;2024-01-15T01:33:19;72.22;;;39.80;;
79149;SDS011;68563;45.644;13.782;2024-01-15T01:35:45;71.30;;;37.30;;
79149;SDS011;68563;45.644;13.782;2024-01-15T01:38:11;70.63;;;36.92;;
79149;SDS011;68563;45.644;13.782;2024-01-15T01:40:37;73.07;;;37.67;;
79149;SDS011;68563;45.644;13.782;2024-01-15T01:43:03;71.32;;;39.35;;
79149;SDS011;68563;45.644;13.782;2024-01-15T01:45:29;78.50;;;39.95;;
79149;SDS011;68563;45.644;13.782;2024-01-15T01:47:55;71.10;;;38.13;;
79149;SDS011;68563;45.644;13.782;2024-01-15T01:50:20;71.20;;;38.92;;
79149;SDS011;68563;45.644;13.782;2024-01-15T01:52:46;72.32;;;39.65;;
79149;SDS011;68563;45.644;13.782;2024-01-15T01:55:12;72.68;;;39.38;;
79149;SDS011;68563;45.644;13.782;2024-01-15T01:57:38;75.25;;;40.28;;
79149;SDS011;68563;45.644;13.782;2024-01-15T02:00:03;70.85;;;37.78;;
79149;SDS011;68563;45.644;13.782;2024-01-15T02:02:31;70.70;;;38.55;;
79149;SDS011;68563;45.644;13.782;2024-01-15T02:04:57;73.18;;;38.20;;
79149;SDS011;68563;45.644;13.782;2024-01-15T02:07:22;73.35;;;39.95;;
79149;SDS011;68563;45.644;13.782;2024-01-15T02:09:49;69.20;;;38.85;;
79149;SDS011;68563;45.644;13.782;2024-01-15T02:12:15;73.45;;;38.38;;
79149;SDS011;68563;45.644;13.782;2024-01-15T02:14:40;73.13;;;38.53;;
79149;SDS011;68563;45.644;13.782;2024-01-15T02:17:06;69.40;;;39.10;;
79149;SDS011;68563;45.644;13.782;2024-01-15T02:19:31;69.95;;;39.47;;
79149;SDS011;68563;45.644;13.782;2024-01-15T02:21:57;74.72;;;40.92;;
79149;SDS011;68563;45.644;13.782;2024-01-15T02:24:22;73.82;;;39.42;;
79149;SDS011;68563;45.644;13.782;2024-01-15T02:26:48;73.32;;;40.10;;
79149;SDS011;68563;45.644;13.782;2024-01-15T02:29:14;70.13;;;38.08;;
79149;SDS011;68563;45.644;13.782;2024-01-15T02:31:40;72.97;;;38.95;;
79149;SDS011;68563;45.644;13.782;2024-01-15T02:34:05;76.95;;;41.47;;
79149;SDS011;68563;45.644;13.782;2024-01-15T02:36:31;71.15;;;38.60;;
79149;SDS011;68563;45.644;13.782;2024-01-15T02:38:56;76.13;;;39.53;;
79149;SDS011;68563;45.644;13.782;2024-01-15T02:41:22;72.75;;;39.25;;
79149;SDS011;68563;45.644;13.782;2024-01-15T02:43:47;75.68;;;39.75;;
79149;SDS011;68563;45.644;13.782;2024-01-15T02:46:12;74.70;;;40.72;;
79149;SDS011;68563;45.644;13.782;2024-01-15T02:48:38;74.07;;;39.88;;
79149;SDS011;68563;45.644;13.782;2024-01-15T02:51:03;75.75;;;39.05;;
79149;SDS011;68563;45.644;13.782;2024-01-15T02:53:29;74.47;;;40.80;;
79149;SDS011;68563;45.644;13.782;2024-01-15T02:55:54;73.10;;;40.47;;
79149;SDS011;68563;45.644;13.782;2024-01-15T02:58:20;74.43;;;40.05;;
79149;SDS011;68563;45.644;13.782;2024-01-15T03:00:46;75.20;;;40.45;;
79149;SDS011;68563;45.644;13.782;2024-01-15T03:03:12;77.35;;;41.08;;
79149;SDS011;68563;45.644;13.782;2024-01-15T03:05:37;77.00;;;40.72;;
79149;SDS011;68563;45.644;13.782;2024-01-15T03:08:03;73.53;;;39.58;;
79149;SDS011;68563;45.644;13.782;2024-01-15T03:10:29;79.72;;;40.55;;
79149;SDS011;68563;45.644;13.782;2024-01-15T03:12:54;73.65;;;39.28;;
79149;SDS011;68563;45.644;13.782;2024-01-15T03:15:20;73.88;;;39.70;;
79149;SDS011;68563;45.644;13.782;2024-01-15T03:17:45;75.78;;;40.35;;
79149;SDS011;68563;45.644;13.782;2024-01-15T03:20:11;75.47;;;39.58;;
79149;SDS011;68563;45.644;13.782;2024-01-15T03:22:36;71.43;;;40.17;;
79149;SDS011;68563;45.644;13.782;2024-01-15T03:25:02;71.68;;;38.83;;
79149;SDS011;68563;45.644;13.782;2024-01-15T03:27:28;77.60;;;38.67;;
79149;SDS011;68563;45.644;13.782;2024-01-15T03:29:54;73.22;;;38.47;;
79149;SDS011;68563;45.644;13.782;2024-01-15T03:32:19;69.47;;;36.75;;
79149;SDS011;68563;45.644;13.782;2024-01-15T03:34:45;68.07;;;36.63;;
79149;SDS011;68563;45.644;13.782;2024-01-15T03:37:11;69.72;;;36.45;;
79149;SDS011;68563;45.644;13.782;2024-01-15T03:39:37;67.63;;;36.58;;
79149;SDS011;68563;45.644;13.782;2024-01-15T03:42:03;69.25;;;38.30;;
79149;SDS011;68563;45.644;13.782;2024-01-15T03:44:28;68.10;;;37.92;;
79149;SDS011;68563;45.644;13.782;2024-01-15T03:46:54;71.07;;;39.10;;
79149;SDS011;68563;45.644;13.782;2024-01-15T03:49:19;71.22;;;38.33;;
79149;SDS011;68563;45.644;13.782;2024-01-15T03:51:45;72.40;;;39.10;;
79149;SDS011;68563;45.644;13.782;2024-01-15T03:54:10;74.75;;;38.72;;
79149;SDS011;68563;45.644;13.782;2024-01-15T03:56:35;67.45;;;37.35;;
79149;SDS011;68563;45.644;13.782;2024-01-15T03:59:01;69.95;;;37.80;;
79149;SDS011;68563;45.644;13.782;2024-01-15T04:01:26;63.97;;;35.20;;
79149;SDS011;68563;45.644;13.782;2024-01-15T04:03:52;67.95;;;34.78;;
79149;SDS011;68563;45.644;13.782;2024-01-15T04:06:17;65.28;;;34.28;;
79149;SDS011;68563;45.644;13.782;2024-01-15T04:08:42;61.38;;;33.42;;
79149;SDS011;68563;45.644;13.782;2024-01-15T04:11:08;64.53;;;33.97;;
79149;SDS011;68563;45.644;13.782;2024-01-15T04:13:33;64.63;;;35.35;;
79149;SDS011;68563;45.644;13.782;2024-01-15T04:15:59;62.50;;;34.63;;
79149;SDS011;68563;45.644;13.782;2024-01-15T04:18:25;69.18;;;36.65;;
79149;SDS011;68563;45.644;13.782;2024-01-15T04:20:51;66.07;;;35.03;;
79149;SDS011;68563;45.644;13.782;2024-01-15T04:23:16;65.88;;;35.03;;
79149;SDS011;68563;45.644;13.782;2024-01-15T04:25:42;67.38;;;36.25;;
79149;SDS011;68563;45.644;13.782;2024-01-15T04:28:08;64.22;;;35.63;;
79149;SDS011;68563;45.644;13.782;2024-01-15T04:30:34;64.63;;;35.53;;
79149;SDS011;68563;45.644;13.782;2024-01-15T04:33:00;66.15;;;35.03;;
79149;SDS011;68563;45.644;13.782;2024-01-15T04:35:25;63.90;;;34.55;;
79149;SDS011;68563;45.644;13.782;2024-01-15T04:37:51;67.38;;;35.25;;
79149;SDS011;68563;45.644;13.782;2024-01-15T04:40:17;65.55;;;35.85;;
79149;SDS011;68563;45.644;13.782;2024-01-15T04:42:42;68.07;;;36.80;;
79149;SDS011;68563;45.644;13.782;2024-01-15T04:45:07;66.60;;;36.88;;
79149;SDS011;68563;45.644;13.782;2024-01-15T04:47:33;65.90;;;37.15;;
79149;SDS011;68563;45.644;13.782;2024-01-15T04:49:59;65.97;;;36.40;;
79149;SDS011;68563;45.644;13.782;2024-01-15T04:52:24;68.45;;;37.35;;
79149;SDS011;68563;45.644;13.782;2024-01-15T04:54:49;69.85;;;37.85;;
79149;SDS011;68563;45.644;13.782;2024-01-15T04:57:15;72.00;;;37.60;;
79149;SDS011;68563;45.644;13.782;2024-01-15T04:59:40;71.97;;;37.33;;
79149;SDS011;68563;45.644;13.782;2024-01-15T05:02:05;68.60;;;36.00;;
79149;SDS011;68563;45.644;13.782;2024-01-15T05:04:31;65.03;;;35.75;;
79149;SDS011;68563;45.644;13.782;2024-01-15T05:06:58;64.80;;;34.67;;
79149;SDS011;68563;45.644;13.782;2024-01-15T05:09:23;62.63;;;34.58;;
79149;SDS011;68563;45.644;13.782;2024-01-15T05:11:48;64.97;;;34.33;;
79149;SDS011;68563;45.644;13.782;2024-01-15T05:14:14;63.03;;;34.88;;
79149;SDS011;68563;45.644;13.782;2024-01-15T05:16:39;63.67;;;34.38;;
79149;SDS011;68563;45.644;13.782;2024-01-15T05:19:11;62.88;;;34.63;;
79149;SDS011;68563;45.644;13.782;2024-01-15T05:21:37;64.95;;;34.25;;
79149;SDS011;68563;45.644;13.782;2024-01-15T05:24:02;61.65;;;32.72;;
79149;SDS011;68563;45.644;13.782;2024-01-15T05:26:27;58.75;;;32.45;;
79149;SDS011;68563;45.644;13.782;2024-01-15T05:28:53;62.95;;;33.17;;
79149;SDS011;68563;45.644;13.782;2024-01-15T05:31:18;61.75;;;33.13;;
79149;SDS011;68563;45.644;13.782;2024-01-15T05:33:44;59.03;;;31.88;;
79149;SDS011;68563;45.644;13.782;2024-01-15T05:36:09;56.55;;;31.95;;
79149;SDS011;68563;45.644;13.782;2024-01-15T05:38:34;57.67;;;30.70;;
79149;SDS011;68563;45.644;13.782;2024-01-15T05:41:00;56.15;;;30.17;;
79149;SDS011;68563;45.644;13.782;2024-01-15T05:43:25;62.95;;;32.97;;
79149;SDS011;68563;45.644;13.782;2024-01-15T05:45:50;56.90;;;31.60;;
79149;SDS011;68563;45.644;13.782;2024-01-15T05:48:16;60.25;;;33.97;;
79149;SDS011;68563;45.644;13.782;2024-01-15T05:50:41;64.53;;;33.92;;
79149;SDS011;68563;45.644;13.782;2024-01-15T05:53:07;66.20;;;35.05;;
79149;SDS011;68563;45.644;13.782;2024-01-15T05:55:33;63.45;;;33.45;;
79149;SDS011;68563;45.644;13.782;2024-01-15T05:57:58;66.40;;;34.60;;
79149;SDS011;68563;45.644;13.782;2024-01-15T06:00:23;68.75;;;37.22;;
79149;SDS011;68563;45.644;13.782;2024-01-15T06:02:49;66.55;;;36.90;;
79149;SDS011;68563;45.644;13.782;2024-01-15T06:05:14;64.88;;;35.25;;
79149;SDS011;68563;45.644;13.782;2024-01-15T06:07:40;66.20;;;35.13;;
79149;SDS011;68563;45.644;13.782;2024-01-15T06:10:06;66.00;;;37.20;;
79149;SDS011;68563;45.644;13.782;2024-01-15T06:12:32;65.82;;;35.80;;
79149;SDS011;68563;45.644;13.782;2024-01-15T06:14:58;65.88;;;36.45;;
79149;SDS011;68563;45.644;13.782;2024-01-15T06:17:24;66.40;;;35.15;;
79149;SDS011;68563;45.644;13.782;2024-01-15T06:19:49;67.68;;;35.13;;
79149;SDS011;68563;45.644;13.782;2024-01-15T06:22:15;67.40;;;34.97;;
79149;SDS011;68563;45.644;13.782;2024-01-15T06:24:40;67.93;;;37.00;;
79149;SDS011;68563;45.644;13.782;2024-01-15T06:27:06;69.20;;;36.63;;
79149;SDS011;68563;45.644;13.782;2024-01-15T06:29:31;63.97;;;34.53;;
79149;SDS011;68563;45.644;13.782;2024-01-15T06:31:57;69.20;;;35.83;;
79149;SDS011;68563;45.644;13.782;2024-01-15T06:34:22;65.88;;;36.20;;
79149;SDS011;68563;45.644;13.782;2024-01-15T06:36:47;67.95;;;36.53;;
79149;SDS011;68563;45.644;13.782;2024-01-15T06:39:13;66.00;;;36.33;;
79149;SDS011;68563;45.644;13.782;2024-01-15T06:41:38;66.63;;;35.22;;
79149;SDS011;68563;45.644;13.782;2024-01-15T06:44:08;70.28;;;36.08;;
79149;SDS011;68563;45.644;13.782;2024-01-15T06:46:36;66.80;;;34.35;;
79149;SDS011;68563;45.644;13.782;2024-01-15T06:49:06;63.25;;;34.17;;
79149;SDS011;68563;45.644;13.782;2024-01-15T06:51:32;65.32;;;33.72;;
79149;SDS011;68563;45.644;13.782;2024-01-15T06:53:57;63.85;;;33.95;;
79149;SDS011;68563;45.644;13.782;2024-01-15T06:56:22;63.03;;;34.70;;
79149;SDS011;68563;45.644;13.782;2024-01-15T06:58:48;68.05;;;33.80;;
79149;SDS011;68563;45.644;13.782;2024-01-15T07:01:13;63.30;;;34.40;;
79149;SDS011;68563;45.644;13.782;2024-01-15T07:03:38;61.25;;;33.33;;
79149;SDS011;68563;45.644;13.782;2024-01-15T07:06:04;59.55;;;31.60;;
79149;SDS011;68563;45.644;13.782;2024-01-15T07:08:30;59.35;;;31.98;;
79149;SDS011;68563;45.644;13.782;2024-01-15T07:10:55;56.72;;;30.63;;
79149;SDS011;68563;45.644;13.782;2024-01-15T07:13:20;60.53;;;33.13;;
79149;SDS011;68563;45.644;13.782;2024-01-15T07:15:46;60.15;;;33.28;;
79149;SDS011;68563;45.644;13.782;2024-01-15T07:18:11;61.40;;;33.47;;
79149;SDS011;68563;45.644;13.782;2024-01-15T07:20:37;60.83;;;33.10;;
79149;SDS011;68563;45.644;13.782;2024-01-15T07:23:02;61.65;;;32.17;;
79149;SDS011;68563;45.644;13.782;2024-01-15T07:25:29;65.03;;;33.40;;
79149;SDS011;68563;45.644;13.782;2024-01-15T07:27:54;59.45;;;32.83;;
79149;SDS011;68563;45.644;13.782;2024-01-15T07:30:20;63.40;;;31.52;;
79149;SDS011;68563;45.644;13.782;2024-01-15T07:32:47;58.05;;;31.40;;
79149;SDS011;68563;45.644;13.782;2024-01-15T07:35:13;58.30;;;31.45;;
79149;SDS011;68563;45.644;13.782;2024-01-15T07:37:39;61.67;;;33.72;;
79149;SDS011;68563;45.644;13.782;2024-01-15T07:40:05;63.53;;;32.88;;
79149;SDS011;68563;45.644;13.782;2024-01-15T07:42:33;58.00;;;31.88;;
79149;SDS011;68563;45.644;13.782;2024-01-15T07:44:59;62.72;;;32.67;;
79149;SDS011;68563;45.644;13.782;2024-01-15T07:47:25;57.85;;;31.15;;
79149;SDS011;68563;45.644;13.782;2024-01-15T07:49:50;60.72;;;32.17;;
79149;SDS011;68563;45.644;13.782;2024-01-15T07:52:15;56.85;;;31.77;;
79149;SDS011;68563;45.644;13.782;2024-01-15T07:54:41;56.88;;;31.58;;
79149;SDS011;68563;45.644;13.782;2024-01-15T07:57:06;60.63;;;31.17;;
79149;SDS011;68563;45.644;13.782;2024-01-15T07:59:31;58.78;;;30.75;;
79149;SDS011;68563;45.644;13.782;2024-01-15T08:01:58;58.30;;;31.38;;
79149;SDS011;68563;45.644;13.782;2024-01-15T08:04:24;60.42;;;30.90;;
79149;SDS011;68563;45.644;13.782;2024-01-15T08:06:49;55.50;;;29.48;;
79149;SDS011;68563;45.644;13.782;2024-01-15T08:09:15;58.10;;;30.15;;
79149;SDS011;68563;45.644;13.782;2024-01-15T08:11:40;55.28;;;29.48;;
79149;SDS011;68563;45.644;13.782;2024-01-15T08:14:07;56.10;;;30.35;;
79149;SDS011;68563;45.644;13.782;2024-01-15T08:16:32;54.25;;;29.63;;
79149;SDS011;68563;45.644;13.782;2024-01-15T08:18:58;55.63;;;30.42;;
79149;SDS011;68563;45.644;13.782;2024-01-15T08:21:23;57.17;;;31.10;;
79149;SDS011;68563;45.644;13.782;2024-01-15T08:23:49;59.30;;;30.48;;
79149;SDS011;68563;45.644;13.782;2024-01-15T08:26:14;53.55;;;29.98;;
79149;SDS011;68563;45.644;13.782;2024-01-15T08:28:40;59.72;;;30.63;;
79149;SDS011;68563;45.644;13.782;2024-01-15T08:31:05;57.35;;;29.85;;
79149;SDS011;68563;45.644;13.782;2024-01-15T08:33:30;56.22;;;30.35;;
79149;SDS011;68563;45.644;13.782;2024-01-15T08:35:56;61.15;;;32.90;;
79149;SDS011;68563;45.644;13.782;2024-01-15T08:38:21;66.63;;;34.03;;
79149;SDS011;68563;45.644;13.782;2024-01-15T08:40:47;62.75;;;34.00;;
79149;SDS011;68563;45.644;13.782;2024-01-15T08:43:14;64.88;;;36.10;;
79149;SDS011;68563;45.644;13.782;2024-01-15T08:45:40;63.05;;;34.58;;
79149;SDS011;68563;45.644;13.782;2024-01-15T08:48:05;66.13;;;35.63;;
79149;SDS011;68563;45.644;13.782;2024-01-15T08:50:31;66.15;;;35.13;;
79149;SDS011;68563;45.644;13.782;2024-01-15T08:52:58;67.15;;;35.30;;
79149;SDS011;68563;45.644;13.782;2024-01-15T08:55:23;67.57;;;34.42;;
79149;SDS011;68563;45.644;13.782;2024-01-15T08:57:49;69.13;;;35.50;;
79149;SDS011;68563;45.644;13.782;2024-01-15T09:00:15;71.20;;;35.65;;
79149;SDS011;68563;45.644;13.782;2024-01-15T09:02:40;61.60;;;33.70;;
79149;SDS011;68563;45.644;13.782;2024-01-15T09:05:07;65.68;;;35.03;;
79149;SDS011;68563;45.644;13.782;2024-01-15T09:07:33;61.88;;;34.28;;
79149;SDS011;68563;45.644;13.782;2024-01-15T09:09:58;64.57;;;35.65;;
79149;SDS011;68563;45.644;13.782;2024-01-15T09:12:25;68.65;;;36.50;;
79149;SDS011;68563;45.644;13.782;2024-01-15T09:14:51;69.53;;;36.00;;
79149;SDS011;68563;45.644;13.782;2024-01-15T09:17:17;67.05;;;35.22;;
79149;SDS011;68563;45.644;13.782;2024-01-15T09:19:42;66.10;;;36.10;;
79149;SDS011;68563;45.644;13.782;2024-01-15T09:22:09;66.20;;;36.67;;
79149;SDS011;68563;45.644;13.782;2024-01-15T09:24:34;65.75;;;35.47;;
79149;SDS011;68563;45.644;13.782;2024-01-15T09:27:00;63.83;;;34.65;;
79149;SDS011;68563;45.644;13.782;2024-01-15T09:29:25;57.85;;;32.55;;
79149;SDS011;68563;45.644;13.782;2024-01-15T09:31:50;58.03;;;30.95;;
79149;SDS011;68563;45.644;13.782;2024-01-15T09:34:17;57.30;;;30.70;;
79149;SDS011;68563;45.644;13.782;2024-01-15T09:36:42;56.58;;;30.55;;
79149;SDS011;68563;45.644;13.782;2024-01-15T09:39:08;53.10;;;30.08;;
79149;SDS011;68563;45.644;13.782;2024-01-15T09:41:36;53.38;;;29.05;;
79149;SDS011;68563;45.644;13.782;2024-01-15T09:44:02;51.60;;;28.65;;
79149;SDS011;68563;45.644;13.782;2024-01-15T09:46:28;51.45;;;28.48;;
79149;SDS011;68563;45.644;13.782;2024-01-15T09:48:54;53.05;;;28.38;;
79149;SDS011;68563;45.644;13.782;2024-01-15T09:51:19;53.78;;;28.90;;
79149;SDS011;68563;45.644;13.782;2024-01-15T09:53:45;51.88;;;28.80;;
79149;SDS011;68563;45.644;13.782;2024-01-15T09:56:12;56.03;;;28.55;;
79149;SDS011;68563;45.644;13.782;2024-01-15T09:58:38;56.92;;;29.63;;
79149;SDS011;68563;45.644;13.782;2024-01-15T10:01:04;56.42;;;30.17;;
79149;SDS011;68563;45.644;13.782;2024-01-15T10:03:29;54.60;;;29.52;;
79149;SDS011;68563;45.644;13.782;2024-01-15T10:05:55;57.92;;;29.30;;
79149;SDS011;68563;45.644;13.782;2024-01-15T10:08:24;51.13;;;28.42;;
79149;SDS011;68563;45.644;13.782;2024-01-15T10:10:50;54.50;;;28.25;;
79149;SDS011;68563;45.644;13.782;2024-01-15T10:13:17;51.65;;;29.27;;
79149;SDS011;68563;45.644;13.782;2024-01-15T10:15:45;56.03;;;29.92;;
79149;SDS011;68563;45.644;13.782;2024-01-15T10:18:12;57.03;;;29.92;;
79149;SDS011;68563;45.644;13.782;2024-01-15T10:20:37;49.60;;;27.35;;
79149;SDS011;68563;45.644;13.782;2024-01-15T10:23:03;52.30;;;28.73;;
79149;SDS011;68563;45.644;13.782;2024-01-15T10:25:29;50.97;;;28.42;;
79149;SDS011;68563;45.644;13.782;2024-01-15T10:28:02;51.67;;;28.45;;
79149;SDS011;68563;45.644;13.782;2024-01-15T10:30:29;56.97;;;28.88;;
79149;SDS011;68563;45.644;13.782;2024-01-15T10:32:58;52.75;;;29.00;;
79149;SDS011;68563;45.644;13.782;2024-01-15T10:35:26;47.45;;;27.20;;
79149;SDS011;68563;45.644;13.782;2024-01-15T10:37:53;50.35;;;27.95;;
79149;SDS011;68563;45.644;13.782;2024-01-15T10:40:18;51.13;;;27.30;;
79149;SDS011;68563;45.644;13.782;2024-01-15T10:42:44;48.92;;;26.08;;
79149;SDS011;68563;45.644;13.782;2024-01-15T10:45:11;46.33;;;25.73;;
79149;SDS011;68563;45.644;13.782;2024-01-15T10:47:37;50.45;;;27.33;;
79149;SDS011;68563;45.644;13.782;2024-01-15T10:50:03;44.92;;;25.40;;
79149;SDS011;68563;45.644;13.782;2024-01-15T10:52:31;51.38;;;26.33;;
79149;SDS011;68563;45.644;13.782;2024-01-15T10:54:57;46.78;;;26.58;;
79149;SDS011;68563;45.644;13.782;2024-01-15T10:57:24;57.08;;;28.42;;
79149;SDS011;68563;45.644;13.782;2024-01-15T10:59:52;47.58;;;25.75;;
79149;SDS011;68563;45.644;13.782;2024-01-15T11:02:17;49.90;;;27.58;;
79149;SDS011;68563;45.644;13.782;2024-01-15T11:04:43;50.55;;;27.10;;
79149;SDS011;68563;45.644;13.782;2024-01-15T11:07:08;46.75;;;25.80;;
79149;SDS011;68563;45.644;13.782;2024-01-15T11:09:36;46.50;;;26.50;;
79149;SDS011;68563;45.644;13.782;2024-01-15T11:12:11;56.17;;;27.73;;
79149;SDS011;68563;45.644;13.782;2024-01-15T11:14:39;54.30;;;28.55;;
79149;SDS011;68563;45.644;13.782;2024-01-15T11:17:05;47.13;;;26.58;;
79149;SDS011;68563;45.644;13.782;2024-01-15T11:22:05;47.60;;;26.40;;
79149;SDS011;68563;45.644;13.782;2024-01-15T11:24:36;50.42;;;26.80;;
79149;SDS011;68563;45.644;13.782;2024-01-15T11:27:03;43.35;;;25.55;;
79149;SDS011;68563;45.644;13.782;2024-01-15T11:29:30;46.88;;;25.35;;
79149;SDS011;68563;45.644;13.782;2024-01-15T11:32:03;49.92;;;27.35;;
79149;SDS011;68563;45.644;13.782;2024-01-15T11:34:54;48.90;;;26.55;;
79149;SDS011;68563;45.644;13.782;2024-01-15T11:37:27;51.40;;;26.00;;
79149;SDS011;68563;45.644;13.782;2024-01-15T11:40:13;52.72;;;28.67;;
79149;SDS011;68563;45.644;13.782;2024-01-15T11:42:39;50.35;;;27.92;;
79149;SDS011;68563;45.644;13.782;2024-01-15T11:45:04;57.00;;;28.20;;
79149;SDS011;68563;45.644;13.782;2024-01-15T11:47:40;55.25;;;27.77;;
79149;SDS011;68563;45.644;13.782;2024-01-15T11:50:43;49.05;;;27.77;;
79149;SDS011;68563;45.644;13.782;2024-01-15T11:53:13;53.30;;;27.90;;
79149;SDS011;68563;45.644;13.782;2024-01-15T11:55:43;53.50;;;28.25;;
79149;SDS011;68563;45.644;13.782;2024-01-15T11:58:10;46.05;;;26.00;;
79149;SDS011;68563;45.644;13.782;2024-01-15T12:00:39;45.70;;;24.65;;
79149;SDS011;68563;45.644;13.782;2024-01-15T12:03:09;41.88;;;21.05;;
79149;SDS011;68563;45.644;13.782;2024-01-15T12:05:36;40.85;;;20.83;;
79149;SDS011;68563;45.644;13.782;2024-01-15T12:08:03;35.35;;;19.60;;
79149;SDS011;68563;45.644;13.782;2024-01-15T12:10:28;34.05;;;19.05;;
79149;SDS011;68563;45.644;13.782;2024-01-15T12:12:58;32.60;;;17.88;;
79149;SDS011;68563;45.644;13.782;2024-01-15T12:15:30;32.22;;;17.63;;
79149;SDS011;68563;45.644;13.782;2024-01-15T12:17:57;34.92;;;17.30;;
79149;SDS011;68563;45.644;13.782;2024-01-15T12:20:27;31.77;;;17.73;;
79149;SDS011;68563;45.644;13.782;2024-01-15T12:22:53;28.67;;;17.42;;
79149;SDS011;68563;45.644;13.782;2024-01-15T12:25:20;32.08;;;17.63;;
79149;SDS011;68563;45.644;13.782;2024-01-15T12:27:46;34.55;;;17.60;;
79149;SDS011;68563;45.644;13.782;2024-01-15T12:30:15;32.17;;;17.65;;
79149;SDS011;68563;45.644;13.782;2024-01-15T12:32:41;37.22;;;19.65;;
79149;SDS011;68563;45.644;13.782;2024-01-15T12:35:07;33.58;;;18.42;;
79149;SDS011;68563;45.644;13.782;2024-01-15T12:37:34;32.20;;;17.60;;
79149;SDS011;68563;45.644;13.782;2024-01-15T12:40:00;32.85;;;17.67;;
79149;SDS011;68563;45.644;13.782;2024-01-15T12:42:27;30.73;;;16.65;;
79149;SDS011;68563;45.644;13.782;2024-01-15T12:44:55;30.85;;;16.00;;
79149;SDS011;68563;45.644;13.782;2024-01-15T12:47:21;27.10;;;16.00;;
79149;SDS011;68563;45.644;13.782;2024-01-15T12:49:47;29.40;;;15.93;;
79149;SDS011;68563;45.644;13.782;2024-01-15T12:52:18;29.30;;;16.33;;
79149;SDS011;68563;45.644;13.782;2024-01-15T12:54:46;27.02;;;15.40;;
79149;SDS011;68563;45.644;13.782;2024-01-15T12:57:12;28.15;;;15.10;;
79149;SDS011;68563;45.644;13.782;2024-01-15T12:59:37;36.00;;;16.15;;
79149;SDS011;68563;45.644;13.782;2024-01-15T13:02:03;30.38;;;16.35;;
79149;SDS011;68563;45.644;13.782;2024-01-15T13:04:28;30.67;;;16.65;;
79149;SDS011;68563;45.644;13.782;2024-01-15T13:06:54;30.17;;;11.27;;
79149;SDS011;68563;45.644;13.782;2024-01-15T13:09:20;28.25;;;14.05;;
79149;SDS011;68563;45.644;13.782;2024-01-15T13:11:45;28.33;;;15.25;;
79149;SDS011;68563;45.644;13.782;2024-01-15T13:14:11;27.75;;;15.40;;
79149;SDS011;68563;45.644;13.782;2024-01-15T13:16:36;27.45;;;15.32;;
79149;SDS011;68563;45.644;13.782;2024-01-15T13:19:02;28.20;;;15.77;;
79149;SDS011;68563;45.644;13.782;2024-01-15T13:21:29;29.70;;;15.93;;
79149;SDS011;68563;45.644;13.782;2024-01-15T13:23:55;26.88;;;15.45;;
79149;SDS011;68563;45.644;13.782;2024-01-15T13:26:21;27.80;;;16.25;;
79149;SDS011;68563;45.644;13.782;2024-01-15T13:28:46;30.35;;;16.77;;
79149;SDS011;68563;45.644;13.782;2024-01-15T13:31:12;30.75;;;16.30;;
79149;SDS011;68563;45.644;13.782;2024-01-15T13:33:38;33.30;;;17.23;;
79149;SDS011;68563;45.644;13.782;2024-01-15T13:36:03;30.42;;;16.63;;
79149;SDS011;68563;45.644;13.782;2024-01-15T13:38:33;30.70;;;16.35;;
79149;SDS011;68563;45.644;13.782;2024-01-15T13:41:01;31.80;;;18.33;;
79149;SDS011;68563;45.644;13.782;2024-01-15T13:43:27;37.22;;;21.48;;
79149;SDS011;68563;45.644;13.782;2024-01-15T13:45:52;37.22;;;20.25;;
79149;SDS011;68563;45.644;13.782;2024-01-15T13:48:19;30.75;;;17.63;;
79149;SDS011;68563;45.644;13.782;2024-01-15T13:50:45;29.23;;;16.52;;
79149;SDS011;68563;45.644;13.782;2024-01-15T13:53:11;27.63;;;16.42;;
79149;SDS011;68563;45.644;13.782;2024-01-15T13:55:36;28.98;;;16.02;;
79149;SDS011;68563;45.644;13.782;2024-01-15T13:58:01;27.25;;;15.68;;
79149;SDS011;68563;45.644;13.782;2024-01-15T14:00:30;29.63;;;15.85;;
79149;SDS011;68563;45.644;13.782;2024-01-15T14:02:56;31.13;;;16.50;;
79149;SDS011;68563;45.644;13.782;2024-01-15T14:05:22;29.98;;;16.45;;